createdAt,value
2023-04-16T00:02:01.634Z,1.20
2023-04-16T00:04:29.231Z,0.95
2023-04-16T00:06:56.105Z,1.20
2023-04-16T00:09:22.861Z,1.15
2023-04-16T00:11:49.996Z,1.25
2023-04-16T00:14:16.848Z,0.87
2023-04-16T00:16:43.739Z,0.85
2023-04-16T00:19:11.121Z,1.10
2023-04-16T00:21:38.631Z,0.90
2023-04-16T00:24:05.683Z,1.40
2023-04-16T00:26:32.792Z,0.90
2023-04-16T00:28:59.768Z,1.27
2023-04-16T00:31:32.205Z,1.67
2023-04-16T00:33:59.945Z,1.20
2023-04-16T00:36:28.138Z,1.05
2023-04-16T00:38:57.215Z,0.87
2023-04-16T00:41:24.156Z,0.85
2023-04-16T00:43:51.165Z,0.95
2023-04-16T00:46:20.570Z,1.27
2023-04-16T00:48:47.775Z,0.90
2023-04-16T00:51:15.393Z,0.80
2023-04-16T00:53:45.554Z,1.00
2023-04-16T00:56:13.968Z,1.27
2023-04-16T00:58:41.621Z,1.48
2023-04-16T01:01:08.620Z,1.80
2023-04-16T01:03:50.290Z,1.87
2023-04-16T01:06:18.977Z,1.40
2023-04-16T01:08:47.294Z,1.80
2023-04-16T01:11:17.089Z,1.27
2023-04-16T01:13:43.921Z,1.60
2023-04-16T01:16:12.748Z,1.80
2023-04-16T01:18:39.676Z,1.60
2023-04-16T01:21:06.997Z,1.58
2023-04-16T01:23:35.048Z,3.13
2023-04-16T01:26:02.606Z,1.27
2023-04-16T01:28:29.365Z,1.00
2023-04-16T01:30:57.170Z,1.63
2023-04-16T01:33:37.266Z,1.52
2023-04-16T01:36:04.370Z,2.20
2023-04-16T01:38:31.605Z,1.58
2023-04-16T01:40:58.949Z,1.10
2023-04-16T01:43:26.118Z,1.52
2023-04-16T01:45:59.650Z,1.63
2023-04-16T01:48:26.596Z,1.98
2023-04-16T01:50:53.648Z,1.70
2023-04-16T01:53:20.465Z,7.53
2023-04-16T01:55:47.382Z,3.33
2023-04-16T01:58:14.263Z,1.42
2023-04-16T02:00:41.401Z,1.48
2023-04-16T02:03:08.441Z,1.58
2023-04-16T02:05:36.082Z,1.50
2023-04-16T02:10:54.604Z,1.65
2023-04-16T02:13:21.410Z,1.50
2023-04-16T02:15:49.815Z,1.77
2023-04-16T02:18:22.512Z,1.40
2023-04-16T02:20:49.867Z,1.80
2023-04-16T02:23:17.804Z,1.88
2023-04-16T02:25:47.289Z,1.55
2023-04-16T02:28:16.915Z,2.05
2023-04-16T02:30:45.889Z,2.00
2023-04-16T02:33:15.080Z,2.20
2023-04-16T02:35:52.603Z,2.83
2023-04-16T02:38:19.942Z,2.03
2023-04-16T02:40:46.723Z,2.42
2023-04-16T02:43:13.570Z,1.90
2023-04-16T02:45:41.164Z,2.15
2023-04-16T02:48:08.020Z,2.75
2023-04-16T02:50:34.975Z,2.50
2023-04-16T02:53:02.608Z,3.30
2023-04-16T02:55:29.556Z,2.57
2023-04-16T02:57:56.502Z,3.15
2023-04-16T03:00:23.442Z,2.63
2023-04-16T03:02:50.457Z,3.47
2023-04-16T03:05:17.530Z,3.35
2023-04-16T03:07:44.406Z,2.63
2023-04-16T03:10:12.590Z,2.97
2023-04-16T03:12:39.831Z,3.65
2023-04-16T03:15:07.504Z,4.97
2023-04-16T03:17:34.601Z,3.03
2023-04-16T03:20:01.627Z,3.30
2023-04-16T03:22:28.640Z,3.08
2023-04-16T03:24:55.493Z,4.70
2023-04-16T03:27:22.461Z,3.30
2023-04-16T03:29:49.483Z,5.10
2023-04-16T03:32:16.301Z,3.27
2023-04-16T03:34:44.834Z,2.92
2023-04-16T03:37:11.637Z,3.83
2023-04-16T03:39:39.146Z,4.00
2023-04-16T03:42:05.958Z,4.45
2023-04-16T03:44:34.334Z,4.50
2023-04-16T03:47:02.082Z,3.78
2023-04-16T03:49:29.224Z,5.20
2023-04-16T03:51:57.575Z,4.78
2023-04-16T03:54:25.631Z,4.13
2023-04-16T03:57:03.087Z,4.80
2023-04-16T03:59:29.854Z,4.70
2023-04-16T04:01:58.321Z,5.47
2023-04-16T04:04:26.254Z,5.72
2023-04-16T04:06:53.693Z,7.00
2023-04-16T04:09:20.880Z,4.00
2023-04-16T04:11:47.699Z,4.53
2023-04-16T04:14:14.502Z,4.13
2023-04-16T04:16:41.959Z,4.57
2023-04-16T04:19:09.165Z,4.63
2023-04-16T04:21:36.561Z,6.67
2023-04-16T04:24:05.294Z,4.32
2023-04-16T04:26:33.635Z,4.22
2023-04-16T04:29:01.081Z,4.60
2023-04-16T04:31:27.966Z,4.78
2023-04-16T04:33:56.053Z,4.97
2023-04-16T04:36:23.320Z,4.45
2023-04-16T04:38:50.351Z,4.10
2023-04-16T04:41:17.369Z,4.70
2023-04-16T04:43:44.137Z,4.95
2023-04-16T04:46:13.221Z,4.53
2023-04-16T04:48:41.871Z,5.28
2023-04-16T04:51:09.030Z,4.15
2023-04-16T04:53:35.992Z,4.85
2023-04-16T04:56:12.172Z,4.10
2023-04-16T04:58:42.083Z,4.40
2023-04-16T05:01:09.507Z,4.20
2023-04-16T05:03:36.694Z,4.55
2023-04-16T05:06:03.751Z,4.70
2023-04-16T05:08:30.616Z,3.90
2023-04-16T05:10:58.089Z,3.93
2023-04-16T05:13:24.882Z,3.90
2023-04-16T05:15:51.615Z,5.07
2023-04-16T05:18:18.942Z,4.38
2023-04-16T05:20:45.802Z,5.72
2023-04-16T05:23:13.179Z,5.13
2023-04-16T05:25:40.017Z,4.78
2023-04-16T05:28:07.460Z,5.05
2023-04-16T05:30:34.324Z,4.50
2023-04-16T05:33:01.236Z,6.13
2023-04-16T05:35:28.086Z,4.80
2023-04-16T05:37:55.460Z,5.00
2023-04-16T05:40:22.375Z,4.50
2023-04-16T05:42:49.214Z,5.50
2023-04-16T05:45:16.010Z,4.18
2023-04-16T05:47:42.885Z,6.53
2023-04-16T05:50:10.363Z,7.22
2023-04-16T05:52:37.104Z,4.55
2023-04-16T05:55:05.284Z,4.43
2023-04-16T05:57:33.302Z,6.07
2023-04-16T06:00:00.440Z,4.80
2023-04-16T06:02:27.224Z,5.82
2023-04-16T06:04:54.192Z,4.82
2023-04-16T06:07:20.953Z,5.80
2023-04-16T06:09:48.557Z,6.13
2023-04-16T06:12:15.464Z,5.93
2023-04-16T06:14:42.321Z,5.43
2023-04-16T06:17:09.178Z,5.65
2023-04-16T06:19:35.912Z,5.00
2023-04-16T06:22:02.745Z,5.10
2023-04-16T06:24:29.500Z,5.63
2023-04-16T06:26:56.543Z,5.15
2023-04-16T06:29:30.671Z,5.85
2023-04-16T06:32:04.485Z,5.85
2023-04-16T06:34:31.293Z,5.53
2023-04-16T06:36:58.192Z,6.37
2023-04-16T06:39:25.085Z,6.63
2023-04-16T06:41:52.190Z,5.03
2023-04-16T06:44:19.009Z,6.80
2023-04-16T06:46:45.846Z,6.43
2023-04-16T06:49:13.145Z,5.93
2023-04-16T06:51:40.004Z,4.80
2023-04-16T06:54:06.743Z,5.85
2023-04-16T06:56:33.804Z,5.05
2023-04-16T06:59:00.528Z,5.85
2023-04-16T07:01:28.472Z,5.90
2023-04-16T07:03:55.664Z,5.40
2023-04-16T07:06:22.935Z,3.90
2023-04-16T07:08:51.113Z,4.85
2023-04-16T07:11:18.688Z,5.43
2023-04-16T07:13:45.727Z,4.50
2023-04-16T07:16:12.579Z,4.88
2023-04-16T07:18:41.274Z,4.95
2023-04-16T07:21:08.049Z,5.07
2023-04-16T07:23:34.858Z,5.50
2023-04-16T07:26:01.715Z,4.67
2023-04-16T07:28:28.584Z,4.03
2023-04-16T07:30:55.356Z,16.15
2023-04-16T07:33:22.120Z,7.28
2023-04-16T07:35:48.886Z,4.45
2023-04-16T07:38:15.628Z,4.33
2023-04-16T07:40:42.459Z,5.05
2023-04-16T07:43:10.078Z,4.47
2023-04-16T07:45:36.916Z,4.47
2023-04-16T07:48:03.865Z,3.78
2023-04-16T07:50:30.797Z,3.57
2023-04-16T07:52:57.621Z,4.35
2023-04-16T07:55:24.452Z,6.03
2023-04-16T07:57:51.243Z,4.30
2023-04-16T08:00:18.132Z,4.75
2023-04-16T08:02:45.373Z,4.37
2023-04-16T08:05:13.217Z,4.07
2023-04-16T08:07:42.928Z,3.95
2023-04-16T08:10:10.042Z,4.47
2023-04-16T08:12:36.951Z,4.40
2023-04-16T08:15:04.030Z,4.33
2023-04-16T08:17:30.966Z,4.90
2023-04-16T08:19:57.916Z,3.47
2023-04-16T08:22:24.760Z,3.28
2023-04-16T08:24:51.803Z,4.25
2023-04-16T08:27:20.152Z,3.70
2023-04-16T08:29:47.856Z,3.58
2023-04-16T08:32:14.869Z,3.47
2023-04-16T08:34:42.301Z,4.15
2023-04-16T08:37:11.186Z,3.13
2023-04-16T08:39:37.921Z,2.50
2023-04-16T08:42:06.508Z,2.67
2023-04-16T08:44:37.481Z,3.17
2023-04-16T08:47:09.731Z,2.70
2023-04-16T08:49:45.026Z,2.45
2023-04-16T08:52:19.312Z,2.67
2023-04-16T08:54:57.110Z,3.20
2023-04-16T08:57:29.763Z,2.63
2023-04-16T08:59:58.196Z,2.22
2023-04-16T09:02:27.002Z,2.85
2023-04-16T09:04:56.133Z,2.57
2023-04-16T09:07:25.757Z,2.25
2023-04-16T09:09:53.814Z,2.50
2023-04-16T09:12:26.245Z,2.38
2023-04-16T09:14:53.019Z,2.63
2023-04-16T09:17:19.934Z,5.40
2023-04-16T09:19:46.940Z,3.88
2023-04-16T09:22:13.698Z,2.88
2023-04-16T09:24:40.432Z,2.17
2023-04-16T09:27:08.393Z,2.88
2023-04-16T09:29:37.269Z,2.77
2023-04-16T09:32:09.381Z,4.15
2023-04-16T09:34:55.035Z,3.30
2023-04-16T09:37:22.112Z,2.28
2023-04-16T09:40:03.129Z,2.67
2023-04-16T09:42:32.079Z,3.67
2023-04-16T09:45:01.326Z,2.58
2023-04-16T09:47:43.852Z,2.70
2023-04-16T09:50:18.921Z,2.63
2023-04-16T09:52:50.462Z,2.25
2023-04-16T09:55:23.227Z,3.60
2023-04-16T09:58:03.095Z,2.72
2023-04-16T10:00:31.115Z,3.03
2023-04-16T10:03:06.528Z,2.97
2023-04-16T10:05:33.604Z,3.10
2023-04-16T10:08:01.106Z,2.67
2023-04-16T10:10:28.161Z,2.80
2023-04-16T10:12:55.975Z,2.60
2023-04-16T10:15:23.723Z,3.15
2023-04-16T10:17:51.525Z,2.97
2023-04-16T10:20:18.947Z,3.43
2023-04-16T10:22:46.399Z,2.88
2023-04-16T10:25:13.588Z,2.85
2023-04-16T10:27:40.756Z,2.35
2023-04-16T10:30:09.568Z,2.33
2023-04-16T10:32:37.426Z,2.33
2023-04-16T10:35:05.212Z,2.10
2023-04-16T10:37:32.685Z,3.03
2023-04-16T10:39:59.647Z,2.33
2023-04-16T10:42:27.148Z,2.45
2023-04-16T10:44:53.917Z,2.10
2023-04-16T10:47:25.126Z,2.25
2023-04-16T10:49:52.090Z,2.50
2023-04-16T10:52:18.978Z,2.53
2023-04-16T10:54:47.245Z,2.85
2023-04-16T10:57:19.715Z,2.90
2023-04-16T10:59:49.015Z,2.20
2023-04-16T11:02:17.919Z,2.17
2023-04-16T11:04:46.618Z,2.53
2023-04-16T11:07:13.825Z,2.00
2023-04-16T11:10:00.916Z,3.37
2023-04-16T11:12:31.274Z,2.42
2023-04-16T11:15:09.381Z,2.28
2023-04-16T11:17:46.590Z,2.92
2023-04-16T11:20:19.902Z,2.20
2023-04-16T11:22:48.310Z,1.70
2023-04-16T11:25:21.063Z,1.98
2023-04-16T11:27:47.857Z,2.10
2023-04-16T11:30:16.278Z,1.92
2023-04-16T11:32:44.737Z,2.33
2023-04-16T11:35:19.568Z,2.30
2023-04-16T11:37:46.777Z,2.75
2023-04-16T11:40:15.252Z,2.85
2023-04-16T11:42:42.539Z,2.90
2023-04-16T11:45:11.684Z,2.47
2023-04-16T11:47:53.593Z,3.00
2023-04-16T11:50:22.312Z,3.60
2023-04-16T11:52:50.719Z,3.03
2023-04-16T11:55:18.449Z,3.33
2023-04-16T11:57:45.575Z,2.47
2023-04-16T12:00:13.942Z,3.03
2023-04-16T12:02:45.724Z,3.10
2023-04-16T12:05:32.133Z,2.95
2023-04-16T12:08:00.648Z,3.78
2023-04-16T12:10:28.153Z,3.00
2023-04-16T12:12:55.105Z,2.60
2023-04-16T12:15:21.838Z,3.63
2023-04-16T12:17:48.818Z,2.80
2023-04-16T12:20:16.248Z,3.55
2023-04-16T12:22:48.596Z,3.38
2023-04-16T12:25:18.045Z,3.77
2023-04-16T12:27:48.200Z,3.17
2023-04-16T12:30:16.978Z,3.22
2023-04-16T12:32:46.671Z,2.65
2023-04-16T12:35:13.862Z,3.17
2023-04-16T12:37:40.808Z,2.97
2023-04-16T12:40:08.076Z,2.13
2023-04-16T12:42:35.088Z,3.38
2023-04-16T12:45:03.593Z,4.03
2023-04-16T12:47:30.766Z,2.80
2023-04-16T12:49:58.322Z,2.93
2023-04-16T12:52:26.169Z,2.33
2023-04-16T12:54:53.081Z,3.65
2023-04-16T12:57:20.153Z,2.38
2023-04-16T12:59:46.999Z,2.28
2023-04-16T13:02:13.951Z,2.23
2023-04-16T13:04:41.131Z,1.83
2023-04-16T13:07:08.283Z,3.42
2023-04-16T13:09:35.088Z,2.72
2023-04-16T13:12:03.535Z,2.08
2023-04-16T13:14:30.656Z,2.47
2023-04-16T13:16:57.496Z,2.95
2023-04-16T13:19:24.415Z,2.60
2023-04-16T13:21:51.690Z,1.95
2023-04-16T13:24:18.507Z,4.47
2023-04-16T13:26:45.787Z,2.30
2023-04-16T13:29:12.809Z,2.13
2023-04-16T13:31:39.993Z,1.98
2023-04-16T13:34:07.075Z,2.40
2023-04-16T13:36:33.874Z,1.52
2023-04-16T13:39:01.773Z,3.20
2023-04-16T13:41:28.969Z,1.52
2023-04-16T13:43:56.348Z,2.13
2023-04-16T13:46:23.388Z,2.33
2023-04-16T13:48:50.331Z,2.08
2023-04-16T13:51:17.182Z,2.00
2023-04-16T13:53:44.107Z,2.08
2023-04-16T13:56:11.244Z,2.50
2023-04-16T13:58:38.796Z,1.98
2023-04-16T14:01:05.885Z,2.50
2023-04-16T14:03:32.762Z,1.97
2023-04-16T14:05:59.807Z,1.70
2023-04-16T14:08:26.856Z,2.20
2023-04-16T14:10:58.721Z,2.00
2023-04-16T14:13:25.719Z,2.67
2023-04-16T14:15:54.935Z,1.73
2023-04-16T14:18:21.846Z,1.55
2023-04-16T14:20:49.920Z,1.70
2023-04-16T14:23:16.861Z,1.85
2023-04-16T14:25:43.700Z,1.67
2023-04-16T14:28:10.544Z,1.60
2023-04-16T14:30:37.315Z,1.70
2023-04-16T14:33:05.926Z,2.28
2023-04-16T14:35:32.928Z,1.88
2023-04-16T14:38:00.492Z,1.52
2023-04-16T14:40:27.341Z,1.30
2023-04-16T14:42:54.260Z,1.90
2023-04-16T14:45:21.107Z,1.63
2023-04-16T14:47:48.710Z,1.77
2023-04-16T14:50:15.789Z,2.05
2023-04-16T14:52:42.830Z,2.50
2023-04-16T14:55:09.618Z,2.30
2023-04-16T14:57:36.474Z,3.53
2023-04-16T15:00:05.986Z,1.85
2023-04-16T15:02:34.472Z,1.75
2023-04-16T15:05:03.468Z,1.47
2023-04-16T15:07:30.354Z,2.35
2023-04-16T15:09:57.918Z,1.88
2023-04-16T15:12:25.185Z,1.95
2023-04-16T15:14:52.178Z,2.08
2023-04-16T15:17:20.628Z,2.13
2023-04-16T15:19:47.549Z,2.55
2023-04-16T15:22:14.357Z,1.60
2023-04-16T15:24:41.642Z,2.15
2023-04-16T15:27:11.638Z,2.60
2023-04-16T15:29:39.269Z,1.93
2023-04-16T15:32:06.557Z,3.17
2023-04-16T15:34:33.661Z,2.75
2023-04-16T15:37:00.897Z,2.47
2023-04-16T15:39:27.925Z,3.33
2023-04-16T15:42:01.504Z,3.00
2023-04-16T15:44:31.015Z,3.55
2023-04-16T15:46:59.597Z,2.20
2023-04-16T15:49:27.232Z,2.40
2023-04-16T15:51:54.140Z,2.28
2023-04-16T15:54:21.438Z,2.77
2023-04-16T15:56:49.421Z,2.72
2023-04-16T15:59:17.060Z,2.72
2023-04-16T16:01:44.936Z,2.95
2023-04-16T16:04:12.632Z,2.03
2023-04-16T16:06:41.118Z,2.47
2023-04-16T16:09:10.104Z,2.55
2023-04-16T16:11:40.206Z,2.50
2023-04-16T16:14:07.443Z,3.00
2023-04-16T16:16:35.999Z,2.85
2023-04-16T16:19:03.597Z,3.13
2023-04-16T16:21:30.914Z,3.20
2023-04-16T16:23:58.305Z,3.03
2023-04-16T16:26:26.994Z,3.45
2023-04-16T16:28:54.333Z,3.65
2023-04-16T16:31:22.084Z,3.00
2023-04-16T16:33:49.308Z,2.53
2023-04-16T16:36:18.376Z,2.85
2023-04-16T16:38:45.850Z,2.97
2023-04-16T16:41:13.471Z,3.03
2023-04-16T16:43:43.537Z,2.80
2023-04-16T16:46:14.528Z,3.55
2023-04-16T16:48:42.392Z,3.15
2023-04-16T16:51:11.881Z,2.65
2023-04-16T16:53:39.566Z,2.45
2023-04-16T16:56:08.609Z,3.20
2023-04-16T16:58:36.440Z,3.10
2023-04-16T17:01:04.082Z,2.72
2023-04-16T17:03:32.404Z,3.63
2023-04-16T17:06:00.486Z,3.05
2023-04-16T17:08:29.823Z,2.90
2023-04-16T17:10:58.276Z,3.13
2023-04-16T17:13:25.693Z,3.05
2023-04-16T17:15:53.021Z,3.30
2023-04-16T17:18:21.515Z,3.53
2023-04-16T17:20:54.944Z,3.43
2023-04-16T17:23:22.841Z,4.03
2023-04-16T17:25:50.168Z,3.42
2023-04-16T17:28:17.973Z,4.05
2023-04-16T17:30:47.433Z,3.47
2023-04-16T17:33:15.431Z,4.90
2023-04-16T17:35:42.627Z,4.20
2023-04-16T17:38:10.343Z,4.10
2023-04-16T17:40:40.015Z,4.78
2023-04-16T17:43:07.499Z,3.67
2023-04-16T17:45:34.682Z,3.80
2023-04-16T17:48:02.247Z,3.53
2023-04-16T17:50:29.920Z,4.05
2023-04-16T17:52:57.528Z,4.07
2023-04-16T17:55:26.267Z,3.47
2023-04-16T17:57:55.225Z,3.60
2023-04-16T18:00:23.241Z,3.78
2023-04-16T18:02:50.934Z,3.25
2023-04-16T18:05:18.767Z,4.45
2023-04-16T18:07:46.068Z,4.38
2023-04-16T18:10:14.578Z,4.17
2023-04-16T18:12:42.377Z,3.67
2023-04-16T18:15:10.758Z,4.05
2023-04-16T18:17:39.129Z,3.75
2023-04-16T18:20:07.989Z,4.28
2023-04-16T18:22:35.785Z,4.17
2023-04-16T18:25:03.527Z,3.40
2023-04-16T18:27:31.013Z,4.03
2023-04-16T18:29:59.592Z,4.10
2023-04-16T18:32:30.814Z,5.28
2023-04-16T18:34:58.741Z,4.40
2023-04-16T18:37:35.054Z,4.43
2023-04-16T18:40:02.522Z,3.63
2023-04-16T18:42:31.539Z,3.88
2023-04-16T18:44:59.468Z,4.32
2023-04-16T18:47:27.446Z,4.00
2023-04-16T18:49:55.049Z,4.53
2023-04-16T18:52:23.427Z,3.55
2023-04-16T18:54:52.472Z,3.95
2023-04-16T18:57:20.760Z,3.30
2023-04-16T18:59:55.338Z,4.13
2023-04-16T19:02:24.092Z,3.25
2023-04-16T19:04:51.702Z,3.40
2023-04-16T19:07:19.813Z,3.33
2023-04-16T19:09:48.274Z,3.83
2023-04-16T19:12:16.058Z,3.33
2023-04-16T19:14:44.795Z,2.95
2023-04-16T19:17:13.624Z,3.60
2023-04-16T19:19:41.304Z,3.92
2023-04-16T19:22:08.730Z,3.20
2023-04-16T19:24:36.888Z,3.90
2023-04-16T19:27:05.875Z,3.97
2023-04-16T19:29:35.210Z,3.60
2023-04-16T19:32:02.895Z,3.55
2023-04-16T19:34:30.905Z,3.17
2023-04-16T19:36:58.297Z,3.27
2023-04-16T19:39:28.460Z,2.58
2023-04-16T19:41:57.440Z,3.58
2023-04-16T19:44:24.743Z,3.83
2023-04-16T19:46:52.108Z,3.65
2023-04-16T19:49:19.869Z,4.57
2023-04-16T19:51:48.008Z,4.18
2023-04-16T19:54:15.405Z,4.03
2023-04-16T19:56:44.415Z,3.20
2023-04-16T19:59:12.443Z,2.67
2023-04-16T20:01:40.693Z,3.80
2023-04-16T20:04:08.300Z,3.28
2023-04-16T20:06:35.302Z,3.92
2023-04-16T20:09:02.826Z,3.45
2023-04-16T20:11:31.222Z,4.40
2023-04-16T20:13:58.497Z,3.63
2023-04-16T20:16:25.846Z,3.65
2023-04-16T20:18:53.398Z,4.53
2023-04-16T20:21:22.288Z,3.95
2023-04-16T20:23:49.276Z,4.63
2023-04-16T20:26:17.954Z,4.00
2023-04-16T20:28:45.833Z,4.10
2023-04-16T20:31:13.546Z,3.90
2023-04-16T20:33:40.763Z,3.97
2023-04-16T20:36:08.124Z,4.30
2023-04-16T20:38:35.160Z,4.33
2023-04-16T20:41:01.926Z,3.67
2023-04-16T20:43:28.641Z,4.15
2023-04-16T20:45:55.547Z,4.97
2023-04-16T20:48:22.477Z,4.60
2023-04-16T20:50:49.230Z,4.43
2023-04-16T20:53:17.888Z,4.18
2023-04-16T20:55:44.630Z,3.67
2023-04-16T20:58:11.543Z,3.60
2023-04-16T21:00:38.384Z,4.32
2023-04-16T21:03:05.277Z,4.07
2023-04-16T21:05:32.236Z,3.92
2023-04-16T21:08:00.741Z,4.28
2023-04-16T21:10:27.562Z,4.65
2023-04-16T21:12:54.332Z,3.97
2023-04-16T21:15:21.084Z,3.90
2023-04-16T21:17:47.949Z,3.95
2023-04-16T21:20:14.863Z,4.32
2023-04-16T21:22:41.887Z,4.80
2023-04-16T21:25:09.547Z,4.10
2023-04-16T21:27:36.349Z,3.90
2023-04-16T21:30:03.144Z,4.30
2023-04-16T21:32:30.189Z,4.13
2023-04-16T21:34:57.743Z,5.00
2023-04-16T21:37:24.647Z,4.13
2023-04-16T21:39:51.473Z,4.60
2023-04-16T21:42:18.311Z,3.78
2023-04-16T21:44:45.091Z,4.65
2023-04-16T21:47:12.120Z,4.57
2023-04-16T21:49:38.904Z,5.00
2023-04-16T21:52:05.884Z,4.80
2023-04-16T21:54:32.630Z,4.60
2023-04-16T21:56:59.413Z,4.10
2023-04-16T21:59:26.210Z,3.45
2023-04-16T22:01:53.394Z,4.90
2023-04-16T22:04:20.292Z,4.30
2023-04-16T22:06:47.120Z,4.10
2023-04-16T22:09:13.892Z,4.10
2023-04-16T22:11:40.868Z,5.20
2023-04-16T22:14:07.626Z,4.85
2023-04-16T22:16:34.581Z,4.27
2023-04-16T22:19:01.824Z,4.28
2023-04-16T22:21:28.625Z,4.88
2023-04-16T22:23:56.126Z,4.63
2023-04-16T22:26:22.949Z,4.95
2023-04-16T22:28:51.684Z,5.80
2023-04-16T22:31:18.509Z,4.65
2023-04-16T22:33:45.299Z,4.57
2023-04-16T22:36:12.304Z,5.20
2023-04-16T22:38:40.092Z,4.22
2023-04-16T22:41:06.896Z,5.53
2023-04-16T22:43:33.763Z,4.25
2023-04-16T22:46:05.053Z,4.93
2023-04-16T22:48:33.237Z,4.13
2023-04-16T22:51:00.111Z,4.60
2023-04-16T22:53:27.015Z,4.87
2023-04-16T22:55:53.825Z,4.35
2023-04-16T22:58:20.736Z,5.15
2023-04-16T23:00:48.553Z,5.07
2023-04-16T23:03:16.278Z,5.50
2023-04-16T23:05:43.847Z,6.80
2023-04-16T23:08:10.606Z,4.82
2023-04-16T23:10:38.441Z,5.03
2023-04-16T23:13:05.300Z,5.10
2023-04-16T23:15:32.143Z,4.65
2023-04-16T23:17:59.205Z,5.30
2023-04-16T23:20:26.219Z,4.72
2023-04-16T23:22:53.016Z,5.03
2023-04-16T23:25:20.091Z,5.07
2023-04-16T23:27:46.907Z,5.10
2023-04-16T23:30:14.084Z,5.07
2023-04-16T23:32:40.923Z,4.75
2023-04-16T23:35:08.551Z,4.95
2023-04-16T23:37:35.393Z,5.18
2023-04-16T23:40:02.526Z,5.60
2023-04-16T23:42:29.358Z,4.47
2023-04-16T23:44:56.196Z,5.13
2023-04-16T23:47:23.009Z,5.10
2023-04-16T23:50:15.068Z,5.43
2023-04-16T23:52:41.939Z,5.60
2023-04-16T23:55:10.184Z,5.37
2023-04-16T23:57:37.926Z,5.47
